createdAt,value
2023-01-19T00:02:55.142Z,10.43
2023-01-19T00:05:57.828Z,11.02
2023-01-19T00:09:00.203Z,10.80
2023-01-19T00:12:02.888Z,10.50
2023-01-19T00:15:06.090Z,10.70
2023-01-19T00:18:10.631Z,10.27
2023-01-19T00:21:16.941Z,9.63
2023-01-19T00:24:19.680Z,9.53
2023-01-19T00:27:22.105Z,9.10
2023-01-19T00:30:24.915Z,10.45
2023-01-19T00:33:27.296Z,9.48
2023-01-19T00:36:30.026Z,9.23
2023-01-19T00:39:32.347Z,9.03
2023-01-19T00:42:40.745Z,8.43
2023-01-19T00:45:43.203Z,8.68
2023-01-19T00:48:45.845Z,8.40
2023-01-19T00:51:48.160Z,8.13
2023-01-19T00:54:51.024Z,7.50
2023-01-19T00:57:53.320Z,7.65
2023-01-19T01:00:57.496Z,7.53
2023-01-19T01:03:59.958Z,6.90
2023-01-19T01:07:02.822Z,7.00
2023-01-19T01:10:05.515Z,7.47
2023-01-19T01:13:19.899Z,6.80
2023-01-19T01:16:25.018Z,6.60
2023-01-19T01:19:27.682Z,6.55
2023-01-19T01:22:30.728Z,6.25
2023-01-19T01:25:37.448Z,5.47
2023-01-19T01:28:39.812Z,5.72
2023-01-19T01:31:42.436Z,5.20
2023-01-19T01:34:44.796Z,4.65
2023-01-19T01:37:47.506Z,4.40
2023-01-19T01:40:50.171Z,3.87
2023-01-19T01:43:58.283Z,3.70
2023-01-19T01:47:01.285Z,3.53
2023-01-19T01:50:27.970Z,4.30
2023-01-19T01:53:32.968Z,2.85
2023-01-19T01:56:59.533Z,3.00
2023-01-19T02:00:03.646Z,3.20
2023-01-19T02:03:07.461Z,3.22
2023-01-19T02:06:10.526Z,2.67
2023-01-19T02:09:31.630Z,3.00
2023-01-19T02:12:53.160Z,2.73
2023-01-19T02:16:00.091Z,2.62
2023-01-19T02:19:04.067Z,2.53
2023-01-19T02:22:19.045Z,2.12
2023-01-19T02:25:22.082Z,2.75
2023-01-19T02:28:26.168Z,2.20
2023-01-19T02:31:31.282Z,2.00
2023-01-19T02:34:33.907Z,1.90
2023-01-19T02:37:40.190Z,1.80
2023-01-19T02:40:43.544Z,1.42
2023-01-19T02:43:49.234Z,1.67
2023-01-19T02:46:54.389Z,1.75
2023-01-19T02:49:57.932Z,1.50
2023-01-19T02:53:21.849Z,1.40
2023-01-19T02:56:30.143Z,1.35
2023-01-19T02:59:50.743Z,1.30
2023-01-19T03:03:16.404Z,1.30
2023-01-19T03:07:07.589Z,1.40
2023-01-19T03:10:24.186Z,1.50
2023-01-19T03:14:02.072Z,1.10
2023-01-19T03:17:08.080Z,1.10
2023-01-19T03:20:14.046Z,1.25
2023-01-19T03:23:18.538Z,1.30
2023-01-19T03:26:26.530Z,1.00
2023-01-19T03:29:34.870Z,1.10
2023-01-19T03:32:48.354Z,1.10
2023-01-19T03:35:56.960Z,1.05
2023-01-19T03:39:02.479Z,1.00
2023-01-19T03:42:08.485Z,0.80
2023-01-19T03:45:14.003Z,1.10
2023-01-19T03:48:17.309Z,0.90
2023-01-19T03:51:20.438Z,1.10
2023-01-19T03:54:23.479Z,1.25
2023-01-19T03:57:26.135Z,1.30
2023-01-19T04:00:29.105Z,1.20
2023-01-19T04:03:31.732Z,1.17
2023-01-19T04:06:34.087Z,1.10
2023-01-19T04:09:36.768Z,1.10
2023-01-19T04:12:40.130Z,1.20
2023-01-19T04:15:42.777Z,0.98
2023-01-19T04:18:45.259Z,0.80
2023-01-19T04:21:51.109Z,0.90
2023-01-19T04:24:53.535Z,1.15
2023-01-19T04:27:58.359Z,0.90
2023-01-19T04:31:01.321Z,1.00
2023-01-19T04:34:04.303Z,0.70
2023-01-19T04:37:08.540Z,0.70
2023-01-19T04:40:14.083Z,0.70
2023-01-19T04:43:17.016Z,0.57
2023-01-19T04:46:19.720Z,0.70
2023-01-19T04:49:22.059Z,0.70
2023-01-19T04:52:24.845Z,0.60
2023-01-19T04:55:27.145Z,0.70
2023-01-19T04:58:29.973Z,0.60
2023-01-19T05:01:32.709Z,0.62
2023-01-19T05:04:35.354Z,0.87
2023-01-19T05:07:38.301Z,0.60
2023-01-19T05:10:41.016Z,0.70
2023-01-19T05:13:43.307Z,0.60
2023-01-19T05:16:45.934Z,0.90
2023-01-19T05:19:49.013Z,0.70
2023-01-19T05:22:53.354Z,0.70
2023-01-19T05:25:56.839Z,0.80
2023-01-19T05:28:59.417Z,0.65
2023-01-19T05:32:02.000Z,0.90
2023-01-19T05:35:04.870Z,0.60
2023-01-19T05:38:07.157Z,0.88
2023-01-19T05:41:09.851Z,0.70
2023-01-19T05:44:12.787Z,0.70
2023-01-19T05:47:15.517Z,1.15
2023-01-19T05:50:17.965Z,0.67
2023-01-19T05:53:21.230Z,0.60
2023-01-19T05:56:23.571Z,0.82
2023-01-19T05:59:27.282Z,0.73
2023-01-19T06:02:30.272Z,0.60
2023-01-19T06:05:32.854Z,0.70
2023-01-19T06:08:35.233Z,0.80
2023-01-19T06:11:37.890Z,0.60
2023-01-19T06:14:40.909Z,0.70
2023-01-19T06:17:43.621Z,0.90
2023-01-19T06:20:45.946Z,1.03
2023-01-19T06:23:48.545Z,0.95
2023-01-19T06:26:51.127Z,1.00
2023-01-19T06:29:53.851Z,1.08
2023-01-19T06:32:56.228Z,1.50
2023-01-19T06:35:58.898Z,1.40
2023-01-19T06:39:05.574Z,1.15
2023-01-19T06:42:13.175Z,1.77
2023-01-19T06:45:17.031Z,1.00
2023-01-19T06:48:19.840Z,1.12
2023-01-19T06:51:23.934Z,1.60
2023-01-19T06:54:27.263Z,1.50
2023-01-19T06:57:29.648Z,1.98
2023-01-19T07:00:32.586Z,2.00
2023-01-19T07:03:36.780Z,1.77
2023-01-19T07:06:39.614Z,2.20
2023-01-19T07:09:41.895Z,2.58
2023-01-19T07:12:46.558Z,2.60
2023-01-19T07:15:49.079Z,2.20
2023-01-19T07:18:51.900Z,2.80
2023-01-19T07:21:54.230Z,2.90
2023-01-19T07:24:56.872Z,2.80
2023-01-19T07:28:00.214Z,3.20
2023-01-19T07:31:03.875Z,2.95
2023-01-19T07:34:07.033Z,3.20
2023-01-19T07:37:10.074Z,3.03
2023-01-19T07:40:12.691Z,2.80
2023-01-19T07:43:15.848Z,2.90
2023-01-19T07:46:18.380Z,2.92
2023-01-19T07:49:21.404Z,2.65
2023-01-19T07:52:23.844Z,2.70
2023-01-19T07:55:26.682Z,2.45
2023-01-19T07:58:29.116Z,2.87
2023-01-19T08:01:32.012Z,2.30
2023-01-19T08:04:34.856Z,3.12
2023-01-19T08:07:37.178Z,2.87
2023-01-19T08:10:39.807Z,2.92
2023-01-19T08:13:43.429Z,4.15
2023-01-19T08:16:46.065Z,3.40
2023-01-19T08:19:48.351Z,3.50
2023-01-19T08:22:51.000Z,3.03
2023-01-19T08:25:53.907Z,3.00
2023-01-19T08:28:58.938Z,3.33
2023-01-19T08:32:03.129Z,3.30
2023-01-19T08:35:06.613Z,3.20
2023-01-19T08:38:10.180Z,3.07
2023-01-19T08:41:12.874Z,3.22
2023-01-19T08:44:16.066Z,3.50
2023-01-19T08:47:18.777Z,3.28
2023-01-19T08:50:22.761Z,3.08
2023-01-19T08:53:25.591Z,3.23
2023-01-19T08:56:27.977Z,3.33
2023-01-19T08:59:30.728Z,4.00
2023-01-19T09:02:33.134Z,4.30
2023-01-19T09:05:39.002Z,3.50
2023-01-19T09:08:41.381Z,3.90
2023-01-19T09:11:44.064Z,3.17
2023-01-19T09:14:46.393Z,3.65
2023-01-19T09:17:49.089Z,4.15
2023-01-19T09:20:51.492Z,4.03
2023-01-19T09:23:55.064Z,4.10
2023-01-19T09:26:57.615Z,3.50
2023-01-19T09:30:00.255Z,4.43
2023-01-19T09:33:10.601Z,2.80
2023-01-19T09:36:13.202Z,4.00
2023-01-19T09:39:15.592Z,5.33
2023-01-19T09:42:31.289Z,4.37
2023-01-19T09:45:46.118Z,3.35
2023-01-19T09:48:52.996Z,3.45
2023-01-19T09:51:55.333Z,2.90
2023-01-19T09:54:59.029Z,5.90
2023-01-19T09:58:01.656Z,5.75
2023-01-19T10:01:27.595Z,6.05
2023-01-19T10:04:40.291Z,6.85
2023-01-19T10:07:53.483Z,7.00
2023-01-19T10:10:57.933Z,7.53
2023-01-19T10:14:00.655Z,7.43
2023-01-19T10:17:22.732Z,7.62
2023-01-19T10:21:05.399Z,7.22
2023-01-19T10:24:28.938Z,7.20
2023-01-19T10:27:34.282Z,8.77
2023-01-19T10:30:37.348Z,6.82
2023-01-19T10:33:39.940Z,7.70
2023-01-19T10:36:42.864Z,6.40
2023-01-19T10:40:11.272Z,6.75
2023-01-19T10:43:36.933Z,5.70
2023-01-19T10:46:50.411Z,6.37
2023-01-19T10:49:53.188Z,6.55
2023-01-19T10:53:00.284Z,6.55
2023-01-19T10:56:24.546Z,7.72
2023-01-19T10:59:33.024Z,6.20
2023-01-19T11:02:35.795Z,5.20
2023-01-19T11:05:38.603Z,6.00
2023-01-19T11:08:42.898Z,6.10
2023-01-19T11:11:51.009Z,6.53
2023-01-19T11:14:54.237Z,6.30
2023-01-19T11:17:56.908Z,6.10
2023-01-19T11:21:21.703Z,5.93
2023-01-19T11:24:24.211Z,5.25
2023-01-19T11:27:27.664Z,5.37
2023-01-19T11:30:30.707Z,6.20
2023-01-19T11:33:53.342Z,6.40
2023-01-19T11:37:04.591Z,5.32
2023-01-19T11:40:09.391Z,5.65
2023-01-19T11:43:13.702Z,5.93
2023-01-19T11:46:17.695Z,6.20
2023-01-19T11:49:31.314Z,5.85
2023-01-19T11:52:40.788Z,6.07
2023-01-19T11:55:51.376Z,5.87
2023-01-19T11:58:54.298Z,6.15
2023-01-19T12:02:00.716Z,6.47
2023-01-19T12:05:12.163Z,6.15
2023-01-19T12:08:19.181Z,6.80
2023-01-19T12:11:57.077Z,7.18
2023-01-19T12:15:22.548Z,8.27
2023-01-19T12:18:30.295Z,8.40
2023-01-19T12:21:32.630Z,7.43
2023-01-19T12:24:44.703Z,8.60
2023-01-19T12:27:48.987Z,7.68
2023-01-19T12:30:52.941Z,7.28
2023-01-19T12:33:55.526Z,7.77
2023-01-19T12:37:03.024Z,8.23
2023-01-19T12:40:26.127Z,7.75
2023-01-19T12:43:29.033Z,8.30
2023-01-19T12:46:32.171Z,8.40
2023-01-19T12:49:49.475Z,7.97
2023-01-19T12:52:58.727Z,6.80
2023-01-19T12:56:10.123Z,7.80
2023-01-19T12:59:25.451Z,7.20
2023-01-19T13:02:28.158Z,7.20
2023-01-19T13:05:32.536Z,7.40
2023-01-19T13:09:26.845Z,7.97
2023-01-19T13:12:29.536Z,7.05
2023-01-19T13:15:36.145Z,6.75
2023-01-19T13:18:41.749Z,6.93
2023-01-19T13:21:49.569Z,7.07
2023-01-19T13:25:07.973Z,7.28
2023-01-19T13:28:13.963Z,7.28
2023-01-19T13:31:17.198Z,7.32
2023-01-19T13:34:23.407Z,7.82
2023-01-19T13:37:38.955Z,6.93
2023-01-19T13:40:42.000Z,7.72
2023-01-19T13:43:45.027Z,8.18
2023-01-19T13:46:48.947Z,7.85
2023-01-19T13:49:56.832Z,9.20
2023-01-19T13:53:00.331Z,7.63
2023-01-19T13:56:23.313Z,10.25
2023-01-19T13:59:26.062Z,8.27
2023-01-19T14:02:28.710Z,8.98
2023-01-19T14:05:39.650Z,8.05
2023-01-19T14:08:41.997Z,8.23
2023-01-19T14:12:05.744Z,8.73
2023-01-19T14:15:17.030Z,9.10
2023-01-19T14:18:19.634Z,8.52
2023-01-19T14:21:22.093Z,8.48
2023-01-19T14:24:24.750Z,8.80
2023-01-19T14:27:27.183Z,8.93
2023-01-19T14:30:30.034Z,8.23
2023-01-19T14:33:36.609Z,9.63
2023-01-19T14:36:42.039Z,10.00
2023-01-19T14:39:56.054Z,9.90
2023-01-19T14:43:03.236Z,10.15
2023-01-19T14:46:05.628Z,9.95
2023-01-19T14:49:19.003Z,9.43
2023-01-19T14:52:38.835Z,9.75
2023-01-19T14:55:51.008Z,9.23
2023-01-19T14:58:54.968Z,9.50
2023-01-19T15:01:59.724Z,9.90
2023-01-19T15:05:02.204Z,9.73
2023-01-19T15:08:05.757Z,10.02
2023-01-19T15:11:32.210Z,10.23
2023-01-19T15:14:35.534Z,10.25
2023-01-19T15:17:37.940Z,10.10
2023-01-19T15:20:40.824Z,9.98
2023-01-19T15:23:43.343Z,10.18
2023-01-19T15:26:46.160Z,10.43
2023-01-19T15:29:48.499Z,10.50
2023-01-19T15:32:51.172Z,10.52
2023-01-19T15:35:54.904Z,10.35
2023-01-19T15:38:57.580Z,11.10
2023-01-19T15:42:01.048Z,11.83
2023-01-19T15:45:23.869Z,11.38
2023-01-19T15:48:26.205Z,12.07
2023-01-19T15:51:29.140Z,10.98
2023-01-19T15:54:31.458Z,12.23
2023-01-19T15:57:35.177Z,10.67
2023-01-19T16:00:37.505Z,11.52
2023-01-19T16:03:40.176Z,11.45
2023-01-19T16:06:45.130Z,11.70
2023-01-19T16:09:48.177Z,11.85
2023-01-19T16:12:50.621Z,11.60
2023-01-19T16:15:53.256Z,11.00
2023-01-19T16:18:56.936Z,12.60
2023-01-19T16:22:02.298Z,11.07
2023-01-19T16:25:05.426Z,11.25
2023-01-19T16:28:08.439Z,13.97
2023-01-19T16:31:10.879Z,10.80
2023-01-19T16:34:13.725Z,11.35
2023-01-19T16:37:16.060Z,12.10
2023-01-19T16:40:20.310Z,11.63
2023-01-19T16:43:22.651Z,10.60
2023-01-19T16:46:27.972Z,12.45
2023-01-19T16:49:30.450Z,12.32
2023-01-19T16:52:33.124Z,12.35
2023-01-19T16:55:40.658Z,11.93
2023-01-19T16:58:43.867Z,11.40
2023-01-19T17:01:46.380Z,11.10
2023-01-19T17:04:49.306Z,12.00
2023-01-19T17:07:51.764Z,12.25
2023-01-19T17:10:55.669Z,12.55
2023-01-19T17:14:00.525Z,11.50
2023-01-19T17:17:04.311Z,10.98
2023-01-19T17:20:07.263Z,11.27
2023-01-19T17:23:10.030Z,10.20
2023-01-19T17:26:12.426Z,10.52
2023-01-19T17:29:16.459Z,10.20
2023-01-19T17:32:18.783Z,9.23
2023-01-19T17:35:21.478Z,10.10
2023-01-19T17:38:23.728Z,10.02
2023-01-19T17:41:31.624Z,11.30
2023-01-19T17:44:34.107Z,10.30
2023-01-19T17:47:37.747Z,10.38
2023-01-19T17:50:40.136Z,9.85
2023-01-19T17:53:42.744Z,9.52
2023-01-19T17:56:45.115Z,9.57
2023-01-19T17:59:47.891Z,9.27
2023-01-19T18:02:51.273Z,9.65
2023-01-19T18:05:54.904Z,10.15
2023-01-19T18:08:58.940Z,10.75
2023-01-19T18:12:01.625Z,10.20
2023-01-19T18:15:05.754Z,10.27
2023-01-19T18:18:08.295Z,9.98
2023-01-19T18:21:12.932Z,9.38
2023-01-19T18:24:15.637Z,9.23
2023-01-19T18:27:17.975Z,9.32
2023-01-19T18:30:21.287Z,8.80
2023-01-19T18:33:24.142Z,9.25
2023-01-19T18:36:26.854Z,8.40
2023-01-19T18:39:32.116Z,9.85
2023-01-19T18:42:34.958Z,9.35
2023-01-19T18:45:38.322Z,8.93
2023-01-19T18:48:41.104Z,9.98
2023-01-19T18:51:43.468Z,9.68
2023-01-19T18:54:48.677Z,8.65
2023-01-19T18:57:51.591Z,9.35
2023-01-19T19:00:54.373Z,9.43
2023-01-19T19:03:57.626Z,8.93
2023-01-19T19:07:00.207Z,9.18
2023-01-19T19:10:02.798Z,8.98
2023-01-19T19:13:05.445Z,9.55
2023-01-19T19:16:09.330Z,9.00
2023-01-19T19:19:15.356Z,8.68
2023-01-19T19:22:17.691Z,8.63
2023-01-19T19:25:20.374Z,8.65
2023-01-19T19:28:22.704Z,10.63
2023-01-19T19:31:26.946Z,8.20
2023-01-19T19:34:30.165Z,9.65
2023-01-19T19:37:32.812Z,10.88
2023-01-19T19:40:35.237Z,9.20
2023-01-19T19:43:38.485Z,10.07
2023-01-19T19:46:43.880Z,9.03
2023-01-19T19:49:46.571Z,9.88
2023-01-19T19:52:49.026Z,9.95
2023-01-19T19:56:02.376Z,8.95
2023-01-19T19:59:04.728Z,10.13
2023-01-19T20:02:11.120Z,9.73
2023-01-19T20:05:13.746Z,9.77
2023-01-19T20:08:16.601Z,9.80
2023-01-19T20:11:22.371Z,9.25
2023-01-19T20:14:24.837Z,9.43
2023-01-19T20:17:27.561Z,8.97
2023-01-19T20:20:30.037Z,8.93
2023-01-19T20:23:33.641Z,9.68
2023-01-19T20:26:39.134Z,9.18
2023-01-19T20:29:41.734Z,10.05
2023-01-19T20:32:44.418Z,9.00
2023-01-19T20:35:47.631Z,8.45
2023-01-19T20:38:51.162Z,10.20
2023-01-19T20:41:53.968Z,9.10
2023-01-19T20:44:56.376Z,8.70
2023-01-19T20:47:59.043Z,8.23
2023-01-19T20:51:08.020Z,8.35
2023-01-19T20:54:12.740Z,8.32
2023-01-19T20:57:15.116Z,9.13
2023-01-19T21:00:18.090Z,8.98
2023-01-19T21:03:20.392Z,9.33
2023-01-19T21:06:23.273Z,8.38
2023-01-19T21:09:25.603Z,9.50
2023-01-19T21:12:28.285Z,9.60
2023-01-19T21:15:30.611Z,11.25
2023-01-19T21:18:33.426Z,9.70
2023-01-19T21:21:35.793Z,10.38
2023-01-19T21:24:38.428Z,10.20
2023-01-19T21:27:40.791Z,10.45
2023-01-19T21:30:43.530Z,10.07
2023-01-19T21:33:45.922Z,11.07
2023-01-19T21:36:48.663Z,11.70
2023-01-19T21:39:50.957Z,11.43
2023-01-19T21:42:53.600Z,12.25
2023-01-19T21:45:56.021Z,11.10
2023-01-19T21:49:04.688Z,10.60
2023-01-19T21:52:07.025Z,10.52
2023-01-19T21:55:09.829Z,11.02
2023-01-19T21:58:12.200Z,10.82
2023-01-19T22:01:15.688Z,12.00
2023-01-19T22:04:18.457Z,10.88
2023-01-19T22:07:20.784Z,11.88
2023-01-19T22:10:23.589Z,10.65
2023-01-19T22:13:28.087Z,10.98
2023-01-19T22:16:30.822Z,9.17
2023-01-19T22:19:33.210Z,9.07
2023-01-19T22:22:35.797Z,9.70
2023-01-19T22:25:38.173Z,10.55
2023-01-19T22:28:41.050Z,10.65
2023-01-19T22:31:43.463Z,9.40
2023-01-19T22:34:47.500Z,9.40
2023-01-19T22:37:49.869Z,10.50
2023-01-19T22:40:52.490Z,10.05
2023-01-19T22:43:57.416Z,10.15
2023-01-19T22:47:00.035Z,9.60
2023-01-19T22:50:02.319Z,10.00
2023-01-19T22:53:04.948Z,9.43
2023-01-19T22:56:19.357Z,9.27
2023-01-19T22:59:22.054Z,9.50
2023-01-19T23:02:24.421Z,8.73
2023-01-19T23:05:27.160Z,9.65
2023-01-19T23:08:29.473Z,9.93
2023-01-19T23:11:38.179Z,10.05
2023-01-19T23:14:40.567Z,9.35
2023-01-19T23:17:45.533Z,8.17
2023-01-19T23:20:47.910Z,8.57
2023-01-19T23:23:57.816Z,8.02
2023-01-19T23:27:02.242Z,8.02
2023-01-19T23:30:05.365Z,7.65
2023-01-19T23:33:07.900Z,8.53
2023-01-19T23:36:15.334Z,9.00
2023-01-19T23:39:20.687Z,8.82
2023-01-19T23:42:23.478Z,8.95
2023-01-19T23:45:25.793Z,7.90
2023-01-19T23:48:28.368Z,8.07
2023-01-19T23:51:32.225Z,8.55
2023-01-19T23:54:35.005Z,9.05
2023-01-19T23:57:37.327Z,9.95
